sensor_id;sensor_type;location;lat;lon;timestamp;P1;durP1;ratioP1;P2;durP2;ratioP2
38879;SDS011;25887;30.194;-97.880;2023-03-14T00:02:06;0.52;;;0.22;;
38879;SDS011;25887;30.194;-97.880;2023-03-14T00:04:32;1.10;;;0.40;;
38879;SDS011;25887;30.194;-97.880;2023-03-14T00:06:58;0.52;;;0.35;;
38879;SDS011;25887;30.194;-97.880;2023-03-14T00:09:24;0.60;;;0.50;;
38879;SDS011;25887;30.194;-97.880;2023-03-14T00:11:54;2.17;;;0.52;;
38879;SDS011;25887;30.194;-97.880;2023-03-14T00:14:20;0.50;;;0.50;;
38879;SDS011;25887;30.194;-97.880;2023-03-14T00:16:47;0.70;;;0.50;;
38879;SDS011;25887;30.194;-97.880;2023-03-14T00:19:13;1.10;;;0.50;;
38879;SDS011;25887;30.194;-97.880;2023-03-14T00:21:40;1.00;;;0.40;;
38879;SDS011;25887;30.194;-97.880;2023-03-14T00:24:07;0.80;;;0.60;;
38879;SDS011;25887;30.194;-97.880;2023-03-14T00:26:34;0.80;;;0.60;;
38879;SDS011;25887;30.194;-97.880;2023-03-14T00:29:00;3.28;;;0.70;;
38879;SDS011;25887;30.194;-97.880;2023-03-14T00:31:26;1.33;;;0.43;;
38879;SDS011;25887;30.194;-97.880;2023-03-14T00:50:43;3.40;;;0.57;;
38879;SDS011;25887;30.194;-97.880;2023-03-14T00:53:09;1.35;;;0.70;;
38879;SDS011;25887;30.194;-97.880;2023-03-14T00:55:36;1.58;;;0.50;;
38879;SDS011;25887;30.194;-97.880;2023-03-14T00:58:07;0.40;;;0.40;;
38879;SDS011;25887;30.194;-97.880;2023-03-14T01:00:35;1.33;;;0.50;;
38879;SDS011;25887;30.194;-97.880;2023-03-14T01:03:02;4.85;;;0.93;;
38879;SDS011;25887;30.194;-97.880;2023-03-14T01:05:28;1.20;;;0.63;;
38879;SDS011;25887;30.194;-97.880;2023-03-14T01:07:55;0.85;;;0.73;;
38879;SDS011;25887;30.194;-97.880;2023-03-14T01:10:21;0.95;;;0.50;;
38879;SDS011;25887;30.194;-97.880;2023-03-14T01:12:48;1.27;;;0.50;;
38879;SDS011;25887;30.194;-97.880;2023-03-14T01:15:15;1.67;;;0.57;;
38879;SDS011;25887;30.194;-97.880;2023-03-14T01:17:41;0.75;;;0.60;;
38879;SDS011;25887;30.194;-97.880;2023-03-14T01:23:09;0.60;;;0.50;;
38879;SDS011;25887;30.194;-97.880;2023-03-14T01:25:45;1.30;;;0.60;;
38879;SDS011;25887;30.194;-97.880;2023-03-14T01:28:30;0.40;;;0.40;;
38879;SDS011;25887;30.194;-97.880;2023-03-14T01:31:34;1.45;;;0.55;;
38879;SDS011;25887;30.194;-97.880;2023-03-14T01:34:04;1.38;;;0.60;;
38879;SDS011;25887;30.194;-97.880;2023-03-14T01:36:36;0.80;;;0.50;;
38879;SDS011;25887;30.194;-97.880;2023-03-14T01:39:02;3.15;;;0.60;;
38879;SDS011;25887;30.194;-97.880;2023-03-14T01:41:31;1.08;;;0.52;;
38879;SDS011;25887;30.194;-97.880;2023-03-14T01:43:57;1.00;;;0.52;;
38879;SDS011;25887;30.194;-97.880;2023-03-14T01:46:25;0.90;;;0.70;;
38879;SDS011;25887;30.194;-97.880;2023-03-14T01:56:53;0.52;;;0.40;;
38879;SDS011;25887;30.194;-97.880;2023-03-14T01:59:25;0.50;;;0.50;;
38879;SDS011;25887;30.194;-97.880;2023-03-14T02:01:54;0.73;;;0.73;;
38879;SDS011;25887;30.194;-97.880;2023-03-14T02:10:17;0.77;;;0.77;;
38879;SDS011;25887;30.194;-97.880;2023-03-14T02:12:48;0.90;;;0.65;;
38879;SDS011;25887;30.194;-97.880;2023-03-14T02:15:16;1.05;;;0.70;;
38879;SDS011;25887;30.194;-97.880;2023-03-14T02:20:56;1.00;;;0.80;;
38879;SDS011;25887;30.194;-97.880;2023-03-14T02:23:28;1.42;;;0.68;;
38879;SDS011;25887;30.194;-97.880;2023-03-14T02:25:58;1.02;;;0.60;;
38879;SDS011;25887;30.194;-97.880;2023-03-14T02:28:34;1.73;;;0.63;;
38879;SDS011;25887;30.194;-97.880;2023-03-14T02:31:01;1.45;;;0.65;;
38879;SDS011;25887;30.194;-97.880;2023-03-14T02:33:30;0.90;;;0.60;;
38879;SDS011;25887;30.194;-97.880;2023-03-14T02:36:00;1.05;;;0.70;;
38879;SDS011;25887;30.194;-97.880;2023-03-14T02:38:37;1.95;;;0.60;;
38879;SDS011;25887;30.194;-97.880;2023-03-14T02:41:11;1.75;;;0.70;;
38879;SDS011;25887;30.194;-97.880;2023-03-14T02:43:37;1.08;;;0.70;;
38879;SDS011;25887;30.194;-97.880;2023-03-14T02:46:07;4.03;;;0.80;;
38879;SDS011;25887;30.194;-97.880;2023-03-14T02:48:43;1.40;;;0.55;;
38879;SDS011;25887;30.194;-97.880;2023-03-14T02:51:18;1.42;;;0.85;;
38879;SDS011;25887;30.194;-97.880;2023-03-14T02:53:45;1.90;;;0.85;;
38879;SDS011;25887;30.194;-97.880;2023-03-14T02:56:12;0.60;;;0.60;;
38879;SDS011;25887;30.194;-97.880;2023-03-14T02:58:38;0.50;;;0.50;;
38879;SDS011;25887;30.194;-97.880;2023-03-14T03:01:04;0.80;;;0.60;;
38879;SDS011;25887;30.194;-97.880;2023-03-14T03:03:31;0.50;;;0.40;;
38879;SDS011;25887;30.194;-97.880;2023-03-14T03:05:58;0.50;;;0.50;;
38879;SDS011;25887;30.194;-97.880;2023-03-14T03:08:26;1.10;;;0.60;;
38879;SDS011;25887;30.194;-97.880;2023-03-14T03:10:54;0.82;;;0.73;;
38879;SDS011;25887;30.194;-97.880;2023-03-14T03:13:21;0.60;;;0.60;;
38879;SDS011;25887;30.194;-97.880;2023-03-14T03:15:48;0.73;;;0.57;;
38879;SDS011;25887;30.194;-97.880;2023-03-14T03:18:14;0.50;;;0.45;;
38879;SDS011;25887;30.194;-97.880;2023-03-14T03:20:41;0.98;;;0.85;;
38879;SDS011;25887;30.194;-97.880;2023-03-14T03:23:07;0.90;;;0.70;;
38879;SDS011;25887;30.194;-97.880;2023-03-14T03:25:33;1.25;;;0.77;;
38879;SDS011;25887;30.194;-97.880;2023-03-14T03:27:59;1.27;;;0.77;;
38879;SDS011;25887;30.194;-97.880;2023-03-14T03:30:26;1.73;;;0.52;;
38879;SDS011;25887;30.194;-97.880;2023-03-14T03:32:52;1.38;;;0.70;;
38879;SDS011;25887;30.194;-97.880;2023-03-14T03:35:18;0.57;;;0.52;;
38879;SDS011;25887;30.194;-97.880;2023-03-14T03:37:44;2.67;;;0.82;;
38879;SDS011;25887;30.194;-97.880;2023-03-14T03:40:10;0.73;;;0.55;;
38879;SDS011;25887;30.194;-97.880;2023-03-14T03:42:38;1.73;;;0.80;;
38879;SDS011;25887;30.194;-97.880;2023-03-14T03:45:05;0.52;;;0.52;;
38879;SDS011;25887;30.194;-97.880;2023-03-14T03:47:31;1.23;;;0.85;;
38879;SDS011;25887;30.194;-97.880;2023-03-14T03:49:57;1.80;;;0.80;;
38879;SDS011;25887;30.194;-97.880;2023-03-14T03:52:24;3.30;;;0.73;;
38879;SDS011;25887;30.194;-97.880;2023-03-14T03:54:50;0.57;;;0.50;;
38879;SDS011;25887;30.194;-97.880;2023-03-14T03:57:17;1.83;;;0.52;;
38879;SDS011;25887;30.194;-97.880;2023-03-14T03:59:43;2.60;;;0.65;;
38879;SDS011;25887;30.194;-97.880;2023-03-14T04:02:09;2.20;;;0.70;;
38879;SDS011;25887;30.194;-97.880;2023-03-14T04:04:36;1.45;;;0.60;;
38879;SDS011;25887;30.194;-97.880;2023-03-14T04:07:04;1.10;;;0.60;;
38879;SDS011;25887;30.194;-97.880;2023-03-14T04:09:31;0.80;;;0.80;;
38879;SDS011;25887;30.194;-97.880;2023-03-14T04:11:57;0.50;;;0.50;;
38879;SDS011;25887;30.194;-97.880;2023-03-14T04:14:23;1.27;;;0.70;;
38879;SDS011;25887;30.194;-97.880;2023-03-14T04:16:49;1.10;;;0.60;;
38879;SDS011;25887;30.194;-97.880;2023-03-14T04:19:16;1.80;;;0.73;;
38879;SDS011;25887;30.194;-97.880;2023-03-14T04:21:42;1.35;;;0.82;;
38879;SDS011;25887;30.194;-97.880;2023-03-14T04:24:10;0.60;;;0.55;;
38879;SDS011;25887;30.194;-97.880;2023-03-14T04:26:36;1.85;;;0.90;;
38879;SDS011;25887;30.194;-97.880;2023-03-14T04:29:02;1.40;;;0.60;;
38879;SDS011;25887;30.194;-97.880;2023-03-14T04:31:28;0.80;;;0.80;;
38879;SDS011;25887;30.194;-97.880;2023-03-14T04:33:55;1.50;;;0.73;;
38879;SDS011;25887;30.194;-97.880;2023-03-14T04:36:21;0.50;;;0.50;;
38879;SDS011;25887;30.194;-97.880;2023-03-14T04:38:47;1.92;;;0.73;;
38879;SDS011;25887;30.194;-97.880;2023-03-14T04:41:13;2.30;;;0.70;;
38879;SDS011;25887;30.194;-97.880;2023-03-14T04:43:39;0.60;;;0.60;;
38879;SDS011;25887;30.194;-97.880;2023-03-14T04:46:06;0.50;;;0.43;;
38879;SDS011;25887;30.194;-97.880;2023-03-14T04:48:32;1.02;;;0.70;;
38879;SDS011;25887;30.194;-97.880;2023-03-14T04:50:58;1.83;;;0.65;;
38879;SDS011;25887;30.194;-97.880;2023-03-14T04:53:25;1.83;;;0.77;;
38879;SDS011;25887;30.194;-97.880;2023-03-14T04:55:52;0.85;;;0.65;;
38879;SDS011;25887;30.194;-97.880;2023-03-14T04:58:20;1.90;;;0.80;;
38879;SDS011;25887;30.194;-97.880;2023-03-14T05:00:47;1.55;;;0.80;;
38879;SDS011;25887;30.194;-97.880;2023-03-14T05:03:14;0.80;;;0.50;;
38879;SDS011;25887;30.194;-97.880;2023-03-14T05:05:41;0.75;;;0.50;;
38879;SDS011;25887;30.194;-97.880;2023-03-14T05:08:07;0.80;;;0.57;;
38879;SDS011;25887;30.194;-97.880;2023-03-14T05:13:35;0.60;;;0.60;;
38879;SDS011;25887;30.194;-97.880;2023-03-14T05:16:05;1.27;;;0.82;;
38879;SDS011;25887;30.194;-97.880;2023-03-14T05:18:32;0.82;;;0.60;;
38879;SDS011;25887;30.194;-97.880;2023-03-14T05:20:58;0.77;;;0.60;;
38879;SDS011;25887;30.194;-97.880;2023-03-14T05:23:25;1.77;;;0.60;;
38879;SDS011;25887;30.194;-97.880;2023-03-14T05:25:51;2.40;;;0.50;;
38879;SDS011;25887;30.194;-97.880;2023-03-14T05:28:17;1.17;;;0.55;;
38879;SDS011;25887;30.194;-97.880;2023-03-14T05:30:44;0.52;;;0.47;;
38879;SDS011;25887;30.194;-97.880;2023-03-14T05:33:10;1.95;;;0.57;;
38879;SDS011;25887;30.194;-97.880;2023-03-14T05:35:36;0.63;;;0.55;;
38879;SDS011;25887;30.194;-97.880;2023-03-14T05:38:02;0.80;;;0.50;;
38879;SDS011;25887;30.194;-97.880;2023-03-14T05:40:28;1.98;;;0.45;;
38879;SDS011;25887;30.194;-97.880;2023-03-14T05:42:55;3.20;;;0.40;;
38879;SDS011;25887;30.194;-97.880;2023-03-14T05:45:21;1.33;;;0.75;;
38879;SDS011;25887;30.194;-97.880;2023-03-14T05:47:47;0.63;;;0.50;;
38879;SDS011;25887;30.194;-97.880;2023-03-14T05:50:14;1.10;;;0.70;;
38879;SDS011;25887;30.194;-97.880;2023-03-14T05:52:40;0.52;;;0.40;;
38879;SDS011;25887;30.194;-97.880;2023-03-14T05:55:07;1.17;;;0.82;;
38879;SDS011;25887;30.194;-97.880;2023-03-14T05:57:33;1.73;;;1.00;;
38879;SDS011;25887;30.194;-97.880;2023-03-14T05:59:59;5.57;;;0.90;;
38879;SDS011;25887;30.194;-97.880;2023-03-14T06:02:25;0.55;;;0.40;;
38879;SDS011;25887;30.194;-97.880;2023-03-14T06:04:52;1.70;;;0.70;;
38879;SDS011;25887;30.194;-97.880;2023-03-14T06:07:18;3.95;;;0.70;;
38879;SDS011;25887;30.194;-97.880;2023-03-14T06:09:44;1.02;;;0.55;;
38879;SDS011;25887;30.194;-97.880;2023-03-14T06:12:11;1.17;;;0.70;;
38879;SDS011;25887;30.194;-97.880;2023-03-14T06:14:37;0.35;;;0.35;;
38879;SDS011;25887;30.194;-97.880;2023-03-14T06:17:03;0.98;;;0.60;;
38879;SDS011;25887;30.194;-97.880;2023-03-14T06:19:29;2.20;;;0.85;;
38879;SDS011;25887;30.194;-97.880;2023-03-14T06:21:55;1.15;;;0.47;;
38879;SDS011;25887;30.194;-97.880;2023-03-14T06:24:21;2.00;;;0.70;;
38879;SDS011;25887;30.194;-97.880;2023-03-14T06:26:48;4.68;;;0.65;;
38879;SDS011;25887;30.194;-97.880;2023-03-14T06:29:14;1.05;;;0.77;;
38879;SDS011;25887;30.194;-97.880;2023-03-14T06:31:40;0.63;;;0.52;;
38879;SDS011;25887;30.194;-97.880;2023-03-14T06:34:06;1.88;;;1.00;;
38879;SDS011;25887;30.194;-97.880;2023-03-14T06:36:32;1.05;;;0.60;;
38879;SDS011;25887;30.194;-97.880;2023-03-14T06:38:59;0.55;;;0.47;;
38879;SDS011;25887;30.194;-97.880;2023-03-14T06:41:25;0.90;;;0.85;;
38879;SDS011;25887;30.194;-97.880;2023-03-14T06:43:52;4.20;;;0.60;;
38879;SDS011;25887;30.194;-97.880;2023-03-14T06:46:18;1.95;;;0.98;;
38879;SDS011;25887;30.194;-97.880;2023-03-14T06:48:44;0.50;;;0.50;;
38879;SDS011;25887;30.194;-97.880;2023-03-14T06:51:10;0.43;;;0.43;;
38879;SDS011;25887;30.194;-97.880;2023-03-14T06:53:38;0.60;;;0.50;;
38879;SDS011;25887;30.194;-97.880;2023-03-14T06:56:04;0.80;;;0.70;;
38879;SDS011;25887;30.194;-97.880;2023-03-14T06:58:33;1.45;;;0.60;;
38879;SDS011;25887;30.194;-97.880;2023-03-14T07:00:59;0.90;;;0.60;;
38879;SDS011;25887;30.194;-97.880;2023-03-14T07:03:26;1.08;;;0.85;;
38879;SDS011;25887;30.194;-97.880;2023-03-14T07:05:54;0.60;;;0.60;;
38879;SDS011;25887;30.194;-97.880;2023-03-14T07:08:20;1.13;;;0.60;;
38879;SDS011;25887;30.194;-97.880;2023-03-14T07:10:47;1.08;;;0.65;;
38879;SDS011;25887;30.194;-97.880;2023-03-14T07:13:13;0.82;;;0.82;;
38879;SDS011;25887;30.194;-97.880;2023-03-14T07:15:39;0.90;;;0.50;;
38879;SDS011;25887;30.194;-97.880;2023-03-14T07:18:05;1.67;;;0.68;;
38879;SDS011;25887;30.194;-97.880;2023-03-14T07:20:31;0.80;;;0.77;;
38879;SDS011;25887;30.194;-97.880;2023-03-14T07:22:57;1.13;;;0.70;;
38879;SDS011;25887;30.194;-97.880;2023-03-14T07:25:28;0.65;;;0.65;;
38879;SDS011;25887;30.194;-97.880;2023-03-14T07:27:54;1.70;;;0.68;;
38879;SDS011;25887;30.194;-97.880;2023-03-14T07:30:20;2.80;;;0.85;;
38879;SDS011;25887;30.194;-97.880;2023-03-14T07:32:47;0.88;;;0.80;;
38879;SDS011;25887;30.194;-97.880;2023-03-14T07:35:13;0.80;;;0.70;;
38879;SDS011;25887;30.194;-97.880;2023-03-14T07:37:39;1.98;;;0.70;;
38879;SDS011;25887;30.194;-97.880;2023-03-14T07:40:05;0.60;;;0.60;;
38879;SDS011;25887;30.194;-97.880;2023-03-14T07:42:32;1.35;;;0.60;;
38879;SDS011;25887;30.194;-97.880;2023-03-14T07:44:58;0.98;;;0.60;;
38879;SDS011;25887;30.194;-97.880;2023-03-14T07:47:24;0.80;;;0.40;;
38879;SDS011;25887;30.194;-97.880;2023-03-14T07:49:50;3.90;;;0.90;;
38879;SDS011;25887;30.194;-97.880;2023-03-14T07:52:17;0.98;;;0.88;;
38879;SDS011;25887;30.194;-97.880;2023-03-14T07:54:43;1.52;;;0.63;;
38879;SDS011;25887;30.194;-97.880;2023-03-14T07:57:09;1.08;;;0.80;;
38879;SDS011;25887;30.194;-97.880;2023-03-14T07:59:35;0.77;;;0.70;;
38879;SDS011;25887;30.194;-97.880;2023-03-14T08:02:01;0.98;;;0.60;;
38879;SDS011;25887;30.194;-97.880;2023-03-14T08:04:30;2.72;;;0.60;;
38879;SDS011;25887;30.194;-97.880;2023-03-14T08:06:58;1.08;;;0.65;;
38879;SDS011;25887;30.194;-97.880;2023-03-14T08:09:24;0.60;;;0.60;;
38879;SDS011;25887;30.194;-97.880;2023-03-14T08:11:50;0.55;;;0.50;;
38879;SDS011;25887;30.194;-97.880;2023-03-14T08:14:16;3.40;;;0.68;;
38879;SDS011;25887;30.194;-97.880;2023-03-14T08:16:43;0.90;;;0.57;;
38879;SDS011;25887;30.194;-97.880;2023-03-14T08:19:09;0.60;;;0.47;;
38879;SDS011;25887;30.194;-97.880;2023-03-14T08:21:35;1.02;;;0.80;;
38879;SDS011;25887;30.194;-97.880;2023-03-14T08:24:02;1.23;;;0.85;;
38879;SDS011;25887;30.194;-97.880;2023-03-14T08:26:28;0.60;;;0.50;;
38879;SDS011;25887;30.194;-97.880;2023-03-14T08:28:54;1.00;;;0.70;;
38879;SDS011;25887;30.194;-97.880;2023-03-14T08:31:20;0.75;;;0.70;;
38879;SDS011;25887;30.194;-97.880;2023-03-14T08:33:46;1.25;;;0.63;;
38879;SDS011;25887;30.194;-97.880;2023-03-14T08:36:13;1.20;;;0.60;;
38879;SDS011;25887;30.194;-97.880;2023-03-14T08:38:39;1.25;;;0.70;;
38879;SDS011;25887;30.194;-97.880;2023-03-14T08:41:08;1.65;;;0.82;;
38879;SDS011;25887;30.194;-97.880;2023-03-14T08:43:34;1.73;;;0.95;;
38879;SDS011;25887;30.194;-97.880;2023-03-14T08:46:01;1.05;;;0.60;;
38879;SDS011;25887;30.194;-97.880;2023-03-14T08:48:28;0.73;;;0.60;;
38879;SDS011;25887;30.194;-97.880;2023-03-14T08:50:56;3.15;;;1.05;;
38879;SDS011;25887;30.194;-97.880;2023-03-14T08:53:29;0.57;;;0.55;;
38879;SDS011;25887;30.194;-97.880;2023-03-14T08:55:55;1.10;;;0.65;;
38879;SDS011;25887;30.194;-97.880;2023-03-14T08:58:21;1.30;;;0.88;;
38879;SDS011;25887;30.194;-97.880;2023-03-14T09:00:49;0.85;;;0.85;;
38879;SDS011;25887;30.194;-97.880;2023-03-14T09:03:15;1.48;;;0.85;;
38879;SDS011;25887;30.194;-97.880;2023-03-14T09:05:41;1.00;;;0.90;;
38879;SDS011;25887;30.194;-97.880;2023-03-14T09:08:07;0.50;;;0.50;;
38879;SDS011;25887;30.194;-97.880;2023-03-14T09:10:34;1.60;;;0.77;;
38879;SDS011;25887;30.194;-97.880;2023-03-14T09:13:00;1.17;;;0.80;;
38879;SDS011;25887;30.194;-97.880;2023-03-14T09:15:26;2.13;;;0.57;;
38879;SDS011;25887;30.194;-97.880;2023-03-14T09:17:52;1.60;;;0.70;;
38879;SDS011;25887;30.194;-97.880;2023-03-14T09:20:18;0.90;;;0.90;;
38879;SDS011;25887;30.194;-97.880;2023-03-14T09:22:45;1.08;;;0.80;;
38879;SDS011;25887;30.194;-97.880;2023-03-14T09:25:11;1.80;;;0.70;;
38879;SDS011;25887;30.194;-97.880;2023-03-14T09:27:37;1.38;;;0.90;;
38879;SDS011;25887;30.194;-97.880;2023-03-14T09:30:03;2.03;;;0.80;;
38879;SDS011;25887;30.194;-97.880;2023-03-14T09:32:30;1.67;;;0.60;;
38879;SDS011;25887;30.194;-97.880;2023-03-14T09:34:57;0.57;;;0.57;;
38879;SDS011;25887;30.194;-97.880;2023-03-14T09:37:23;0.95;;;0.80;;
38879;SDS011;25887;30.194;-97.880;2023-03-14T09:39:49;1.83;;;0.70;;
38879;SDS011;25887;30.194;-97.880;2023-03-14T09:42:20;1.27;;;0.77;;
38879;SDS011;25887;30.194;-97.880;2023-03-14T09:45:00;1.35;;;0.80;;
38879;SDS011;25887;30.194;-97.880;2023-03-14T09:47:33;1.13;;;0.80;;
38879;SDS011;25887;30.194;-97.880;2023-03-14T09:50:00;4.20;;;0.80;;
38879;SDS011;25887;30.194;-97.880;2023-03-14T09:52:30;0.65;;;0.57;;
38879;SDS011;25887;30.194;-97.880;2023-03-14T09:55:10;0.90;;;0.70;;
38879;SDS011;25887;30.194;-97.880;2023-03-14T09:57:48;1.23;;;0.80;;
38879;SDS011;25887;30.194;-97.880;2023-03-14T10:00:21;1.80;;;1.02;;
38879;SDS011;25887;30.194;-97.880;2023-03-14T10:05:23;1.50;;;0.68;;
38879;SDS011;25887;30.194;-97.880;2023-03-14T10:07:51;1.52;;;1.10;;
38879;SDS011;25887;30.194;-97.880;2023-03-14T10:10:22;1.25;;;0.98;;
38879;SDS011;25887;30.194;-97.880;2023-03-14T10:12:59;1.10;;;0.82;;
38879;SDS011;25887;30.194;-97.880;2023-03-14T10:15:39;2.20;;;1.05;;
38879;SDS011;25887;30.194;-97.880;2023-03-14T10:18:10;3.97;;;1.30;;
38879;SDS011;25887;30.194;-97.880;2023-03-14T10:20:44;1.92;;;0.82;;
38879;SDS011;25887;30.194;-97.880;2023-03-14T10:25:39;1.30;;;0.70;;
38879;SDS011;25887;30.194;-97.880;2023-03-14T10:31:05;1.45;;;0.75;;
38879;SDS011;25887;30.194;-97.880;2023-03-14T10:33:32;0.77;;;0.60;;
38879;SDS011;25887;30.194;-97.880;2023-03-14T10:36:05;1.48;;;0.88;;
38879;SDS011;25887;30.194;-97.880;2023-03-14T10:38:44;4.47;;;0.85;;
38879;SDS011;25887;30.194;-97.880;2023-03-14T10:41:15;2.65;;;0.82;;
38879;SDS011;25887;30.194;-97.880;2023-03-14T10:43:50;2.28;;;1.00;;
38879;SDS011;25887;30.194;-97.880;2023-03-14T10:46:19;1.63;;;1.00;;
38879;SDS011;25887;30.194;-97.880;2023-03-14T10:48:46;0.98;;;0.73;;
38879;SDS011;25887;30.194;-97.880;2023-03-14T10:53:55;2.00;;;1.00;;
38879;SDS011;25887;30.194;-97.880;2023-03-14T10:56:24;1.30;;;0.83;;
38879;SDS011;25887;30.194;-97.880;2023-03-14T10:58:52;1.10;;;0.77;;
38879;SDS011;25887;30.194;-97.880;2023-03-14T11:01:31;3.72;;;1.13;;
38879;SDS011;25887;30.194;-97.880;2023-03-14T11:15:49;1.20;;;0.80;;
38879;SDS011;25887;30.194;-97.880;2023-03-14T11:26:34;2.30;;;1.25;;
38879;SDS011;25887;30.194;-97.880;2023-03-14T11:31:50;2.15;;;1.30;;
38879;SDS011;25887;30.194;-97.880;2023-03-14T11:34:28;2.40;;;1.02;;
38879;SDS011;25887;30.194;-97.880;2023-03-14T11:37:04;2.63;;;1.27;;
38879;SDS011;25887;30.194;-97.880;2023-03-14T11:39:40;2.00;;;1.30;;
38879;SDS011;25887;30.194;-97.880;2023-03-14T11:51:07;1.98;;;1.48;;
38879;SDS011;25887;30.194;-97.880;2023-03-14T11:53:55;1.60;;;0.90;;
38879;SDS011;25887;30.194;-97.880;2023-03-14T11:56:35;1.50;;;1.00;;
38879;SDS011;25887;30.194;-97.880;2023-03-14T12:13:53;4.55;;;1.20;;
38879;SDS011;25887;30.194;-97.880;2023-03-14T12:39:57;1.65;;;1.10;;
38879;SDS011;25887;30.194;-97.880;2023-03-14T12:42:54;1.73;;;0.93;;
38879;SDS011;25887;30.194;-97.880;2023-03-14T12:45:31;1.92;;;1.20;;
38879;SDS011;25887;30.194;-97.880;2023-03-14T12:48:03;2.50;;;1.50;;
38879;SDS011;25887;30.194;-97.880;2023-03-14T12:50:54;1.98;;;1.15;;
38879;SDS011;25887;30.194;-97.880;2023-03-14T12:55:57;1.70;;;1.27;;
38879;SDS011;25887;30.194;-97.880;2023-03-14T12:58:33;1.48;;;0.93;;
38879;SDS011;25887;30.194;-97.880;2023-03-14T13:01:05;2.22;;;1.27;;
38879;SDS011;25887;30.194;-97.880;2023-03-14T13:03:43;2.22;;;1.00;;
38879;SDS011;25887;30.194;-97.880;2023-03-14T13:06:11;3.45;;;1.10;;
38879;SDS011;25887;30.194;-97.880;2023-03-14T13:08:57;4.88;;;1.10;;
38879;SDS011;25887;30.194;-97.880;2023-03-14T13:11:23;3.05;;;1.30;;
38879;SDS011;25887;30.194;-97.880;2023-03-14T13:13:59;2.10;;;1.10;;
38879;SDS011;25887;30.194;-97.880;2023-03-14T13:16:27;1.15;;;0.93;;
38879;SDS011;25887;30.194;-97.880;2023-03-14T13:19:03;1.70;;;1.08;;
38879;SDS011;25887;30.194;-97.880;2023-03-14T13:21:41;3.20;;;1.10;;
38879;SDS011;25887;30.194;-97.880;2023-03-14T13:24:18;3.97;;;1.10;;
38879;SDS011;25887;30.194;-97.880;2023-03-14T13:26:56;1.80;;;1.20;;
38879;SDS011;25887;30.194;-97.880;2023-03-14T13:29:32;2.00;;;0.90;;
38879;SDS011;25887;30.194;-97.880;2023-03-14T13:31:59;2.05;;;1.10;;
38879;SDS011;25887;30.194;-97.880;2023-03-14T13:34:31;1.80;;;0.95;;
38879;SDS011;25887;30.194;-97.880;2023-03-14T13:36:59;2.10;;;0.98;;
38879;SDS011;25887;30.194;-97.880;2023-03-14T13:39:26;4.55;;;1.42;;
38879;SDS011;25887;30.194;-97.880;2023-03-14T13:42:02;1.58;;;1.20;;
38879;SDS011;25887;30.194;-97.880;2023-03-14T13:47:09;2.00;;;1.30;;
38879;SDS011;25887;30.194;-97.880;2023-03-14T13:49:41;2.42;;;1.02;;
38879;SDS011;25887;30.194;-97.880;2023-03-14T13:52:22;4.05;;;1.30;;
38879;SDS011;25887;30.194;-97.880;2023-03-14T13:54:54;2.33;;;1.35;;
38879;SDS011;25887;30.194;-97.880;2023-03-14T13:57:20;1.30;;;1.10;;
38879;SDS011;25887;30.194;-97.880;2023-03-14T14:00:05;1.70;;;1.13;;
38879;SDS011;25887;30.194;-97.880;2023-03-14T14:02:36;2.45;;;1.10;;
38879;SDS011;25887;30.194;-97.880;2023-03-14T14:05:03;3.55;;;1.23;;
38879;SDS011;25887;30.194;-97.880;2023-03-14T14:07:30;1.67;;;1.10;;
38879;SDS011;25887;30.194;-97.880;2023-03-14T14:09:57;10.20;;;1.48;;
38879;SDS011;25887;30.194;-97.880;2023-03-14T14:12:30;3.25;;;1.30;;
38879;SDS011;25887;30.194;-97.880;2023-03-14T14:17:38;3.20;;;1.73;;
38879;SDS011;25887;30.194;-97.880;2023-03-14T14:20:14;3.28;;;1.33;;
38879;SDS011;25887;30.194;-97.880;2023-03-14T14:22:49;5.65;;;1.40;;
38879;SDS011;25887;30.194;-97.880;2023-03-14T14:25:16;1.95;;;1.25;;
38879;SDS011;25887;30.194;-97.880;2023-03-14T14:27:43;2.83;;;1.42;;
38879;SDS011;25887;30.194;-97.880;2023-03-14T14:32:48;3.65;;;1.27;;
38879;SDS011;25887;30.194;-97.880;2023-03-14T14:35:23;4.93;;;1.63;;
38879;SDS011;25887;30.194;-97.880;2023-03-14T14:38:00;2.88;;;1.20;;
38879;SDS011;25887;30.194;-97.880;2023-03-14T14:40:28;2.72;;;1.33;;
38879;SDS011;25887;30.194;-97.880;2023-03-14T14:43:03;3.72;;;1.58;;
38879;SDS011;25887;30.194;-97.880;2023-03-14T14:45:30;2.87;;;1.83;;
38879;SDS011;25887;30.194;-97.880;2023-03-14T14:50:33;2.10;;;1.40;;
38879;SDS011;25887;30.194;-97.880;2023-03-14T14:55:59;2.15;;;1.30;;
38879;SDS011;25887;30.194;-97.880;2023-03-14T14:58:33;2.72;;;1.33;;
38879;SDS011;25887;30.194;-97.880;2023-03-14T15:01:04;2.27;;;1.40;;
38879;SDS011;25887;30.194;-97.880;2023-03-14T15:03:41;4.43;;;1.52;;
38879;SDS011;25887;30.194;-97.880;2023-03-14T15:06:08;2.58;;;1.60;;
38879;SDS011;25887;30.194;-97.880;2023-03-14T15:08:38;4.95;;;1.80;;
38879;SDS011;25887;30.194;-97.880;2023-03-14T15:11:04;1.83;;;1.27;;
38879;SDS011;25887;30.194;-97.880;2023-03-14T15:13:30;2.30;;;1.40;;
38879;SDS011;25887;30.194;-97.880;2023-03-14T15:15:56;7.50;;;1.65;;
38879;SDS011;25887;30.194;-97.880;2023-03-14T15:18:24;2.85;;;1.38;;
38879;SDS011;25887;30.194;-97.880;2023-03-14T15:20:53;3.45;;;1.50;;
38879;SDS011;25887;30.194;-97.880;2023-03-14T15:23:20;1.30;;;1.02;;
38879;SDS011;25887;30.194;-97.880;2023-03-14T15:25:47;6.28;;;2.05;;
38879;SDS011;25887;30.194;-97.880;2023-03-14T15:30:51;4.32;;;1.25;;
38879;SDS011;25887;30.194;-97.880;2023-03-14T15:33:19;3.67;;;1.50;;
38879;SDS011;25887;30.194;-97.880;2023-03-14T15:35:46;2.35;;;1.35;;
38879;SDS011;25887;30.194;-97.880;2023-03-14T15:38:17;1.77;;;1.08;;
38879;SDS011;25887;30.194;-97.880;2023-03-14T15:40:48;1.97;;;1.20;;
38879;SDS011;25887;30.194;-97.880;2023-03-14T15:43:15;4.63;;;1.35;;
38879;SDS011;25887;30.194;-97.880;2023-03-14T15:45:42;2.25;;;1.33;;
38879;SDS011;25887;30.194;-97.880;2023-03-14T15:48:26;2.53;;;1.20;;
38879;SDS011;25887;30.194;-97.880;2023-03-14T15:50:52;1.90;;;1.30;;
38879;SDS011;25887;30.194;-97.880;2023-03-14T15:53:19;2.10;;;1.02;;
38879;SDS011;25887;30.194;-97.880;2023-03-14T15:55:45;3.35;;;1.40;;
38879;SDS011;25887;30.194;-97.880;2023-03-14T15:58:15;2.72;;;1.50;;
38879;SDS011;25887;30.194;-97.880;2023-03-14T16:00:42;3.30;;;1.42;;
38879;SDS011;25887;30.194;-97.880;2023-03-14T16:03:08;2.45;;;1.30;;
38879;SDS011;25887;30.194;-97.880;2023-03-14T16:05:36;3.60;;;1.45;;
38879;SDS011;25887;30.194;-97.880;2023-03-14T16:08:02;1.33;;;1.13;;
38879;SDS011;25887;30.194;-97.880;2023-03-14T16:10:30;2.60;;;1.38;;
38879;SDS011;25887;30.194;-97.880;2023-03-14T16:12:56;2.72;;;1.40;;
38879;SDS011;25887;30.194;-97.880;2023-03-14T16:15:23;4.13;;;1.30;;
38879;SDS011;25887;30.194;-97.880;2023-03-14T16:17:54;4.18;;;1.70;;
38879;SDS011;25887;30.194;-97.880;2023-03-14T16:20:21;2.33;;;1.10;;
38879;SDS011;25887;30.194;-97.880;2023-03-14T16:22:48;2.03;;;1.38;;
38879;SDS011;25887;30.194;-97.880;2023-03-14T16:25:14;2.03;;;1.20;;
38879;SDS011;25887;30.194;-97.880;2023-03-14T16:27:41;2.53;;;1.50;;
38879;SDS011;25887;30.194;-97.880;2023-03-14T16:30:08;1.77;;;1.58;;
38879;SDS011;25887;30.194;-97.880;2023-03-14T16:32:35;2.83;;;1.30;;
38879;SDS011;25887;30.194;-97.880;2023-03-14T16:35:02;3.58;;;2.00;;
38879;SDS011;25887;30.194;-97.880;2023-03-14T16:37:28;3.63;;;1.83;;
38879;SDS011;25887;30.194;-97.880;2023-03-14T16:39:54;4.72;;;1.35;;
38879;SDS011;25887;30.194;-97.880;2023-03-14T16:42:21;6.65;;;1.40;;
38879;SDS011;25887;30.194;-97.880;2023-03-14T16:44:47;2.30;;;1.25;;
38879;SDS011;25887;30.194;-97.880;2023-03-14T16:47:14;3.15;;;1.70;;
38879;SDS011;25887;30.194;-97.880;2023-03-14T16:49:40;4.72;;;1.50;;